Time;durP1;ratioP1;P1;durP2;ratioP2;P2;SDS_P1;SDS_P2;PMS_P1;PMS_P2;Temp;Humidity;BMP_temperature;BMP_pressure;BME280_temperature;BME280_humidity;BME280_pressure;Samples;Min_cycle;Max_cycle;Signal;HPM_P1;HPM_P2
2022/07/02 00:00:19;;;;;;;10.05;4.10;;;;;;;;;;10274363;28;20544;-65
2022/07/02 00:05:20;;;;;;;4.75;4.30;;;;;;;;;;10274681;28;20076;-65
2022/07/02 00:10:19;;;;;;;8.50;4.65;;;;;;;;;;10274078;28;20045;-65
2022/07/02 00:15:19;;;;;;;5.07;3.88;;;;;;;;;;10275705;28;20474;-65
2022/07/02 00:20:17;;;;;;;6.78;4.45;;;;;;;;;;10280649;28;20079;-64
2022/07/02 00:25:15;;;;;;;4.80;4.30;;;;;;;;;;10282647;28;20293;-65
2022/07/02 00:30:14;;;;;;;11.35;5.00;;;;;;;;;;10282496;28;20069;-65
2022/07/02 00:35:15;;;;;;;7.22;4.07;;;;;;;;;;10283512;28;20068;-64
2022/07/02 00:40:14;;;;;;;6.18;4.82;;;;;;;;;;10282435;28;20076;-65
2022/07/02 00:45:12;;;;;;;6.30;3.83;;;;;;;;;;10281613;28;20108;-65
2022/07/02 00:50:11;;;;;;;4.97;4.32;;;;;;;;;;10285730;28;20080;-64
2022/07/02 00:55:11;;;;;;;7.72;3.85;;;;;;;;;;10285882;28;20075;-65
2022/07/02 01:00:09;;;;;;;7.28;4.43;;;;;;;;;;10282813;28;20084;-64
2022/07/02 01:05:08;;;;;;;6.20;4.22;;;;;;;;;;10279275;28;20085;-64
2022/07/02 01:10:19;;;;;;;4.72;3.90;;;;;;;;;;10281964;28;20065;-64
2022/07/02 01:15:19;;;;;;;3.97;3.50;;;;;;;;;;10283885;28;20068;-64
2022/07/02 01:20:17;;;;;;;8.18;3.78;;;;;;;;;;10281866;28;20088;-65
2022/07/02 01:25:17;;;;;;;4.55;4.13;;;;;;;;;;10283656;28;20506;-64
2022/07/02 01:30:15;;;;;;;6.30;3.88;;;;;;;;;;10279762;28;20041;-64
2022/07/02 01:35:14;;;;;;;8.77;3.85;;;;;;;;;;10280794;28;20071;-64
2022/07/02 01:40:12;;;;;;;6.50;4.50;;;;;;;;;;10287249;28;20474;-64
2022/07/02 01:45:12;;;;;;;11.75;9.43;;;;;;;;;;10279939;28;20076;-69
2022/07/02 01:50:10;;;;;;;8.98;6.57;;;;;;;;;;10279384;28;20478;-69
2022/07/02 01:55:09;;;;;;;4.15;3.80;;;;;;;;;;10288717;28;20521;-68
2022/07/02 02:00:08;;;;;;;8.38;5.03;;;;;;;;;;10282445;28;20041;-69
2022/07/02 02:05:09;;;;;;;11.35;6.03;;;;;;;;;;10279523;28;20081;-68
2022/07/02 02:10:07;;;;;;;8.00;4.95;;;;;;;;;;10281896;28;20069;-68
2022/07/02 02:15:06;;;;;;;6.82;5.60;;;;;;;;;;10281605;28;20065;-68
2022/07/02 02:20:05;;;;;;;6.20;5.43;;;;;;;;;;10279305;28;20534;-68
2022/07/02 02:25:05;;;;;;;9.88;4.43;;;;;;;;;;10281909;28;20096;-69
2022/07/02 02:30:03;;;;;;;5.38;4.03;;;;;;;;;;10275521;28;20037;-68
2022/07/02 02:35:02;;;;;;;6.40;5.28;;;;;;;;;;10279060;28;20544;-69
2022/07/02 02:40:00;;;;;;;4.50;4.10;;;;;;;;;;10284714;28;20505;-68
2022/07/02 02:45:00;;;;;;;5.97;4.32;;;;;;;;;;10280804;28;20179;-68
2022/07/02 02:49:58;;;;;;;6.28;4.80;;;;;;;;;;10275233;28;20056;-68
2022/07/02 02:54:56;;;;;;;6.38;4.45;;;;;;;;;;10279652;28;20064;-69
2022/07/02 02:59:54;;;;;;;6.60;4.57;;;;;;;;;;10277847;28;20418;-69
2022/07/02 03:04:54;;;;;;;4.95;4.45;;;;;;;;;;10280496;28;20091;-69
2022/07/02 03:09:52;;;;;;;4.65;4.03;;;;;;;;;;10276861;28;20080;-69
2022/07/02 03:14:54;;;;;;;6.45;4.90;;;;;;;;;;10276648;28;20056;-69
2022/07/02 03:19:54;;;;;;;4.45;4.05;;;;;;;;;;10276763;28;20061;-69
2022/07/02 03:24:52;;;;;;;10.30;4.38;;;;;;;;;;10275952;28;20198;-69
2022/07/02 03:29:51;;;;;;;7.20;3.72;;;;;;;;;;10284533;28;20087;-69
2022/07/02 03:34:49;;;;;;;6.68;4.63;;;;;;;;;;10275687;28;20049;-69
2022/07/02 03:39:49;;;;;;;9.50;3.97;;;;;;;;;;10275449;28;20418;-69
2022/07/02 03:44:47;;;;;;;5.47;4.57;;;;;;;;;;10276653;28;20302;-68
2022/07/02 03:49:45;;;;;;;7.95;5.28;;;;;;;;;;10275816;28;20057;-69
2022/07/02 03:54:43;;;;;;;10.02;5.57;;;;;;;;;;10285027;28;20429;-69
2022/07/02 03:59:43;;;;;;;6.15;4.18;;;;;;;;;;10287863;28;20059;-68
2022/07/02 04:04:41;;;;;;;5.82;3.85;;;;;;;;;;10288282;28;20077;-69
2022/07/02 04:09:41;;;;;;;5.70;4.38;;;;;;;;;;10288275;28;20072;-69
2022/07/02 04:14:39;;;;;;;7.57;4.15;;;;;;;;;;10296476;28;20406;-69
2022/07/02 04:19:39;;;;;;;8.23;4.60;;;;;;;;;;10292454;28;20052;-68
2022/07/02 04:24:37;;;;;;;5.07;4.60;;;;;;;;;;10295502;28;20530;-68
2022/07/02 04:29:36;;;;;;;5.38;4.82;;;;;;;;;;10288540;28;20048;-69
2022/07/02 04:34:34;;;;;;;4.97;4.22;;;;;;;;;;10287866;28;20044;-68
2022/07/02 04:39:34;;;;;;;5.28;4.78;;;;;;;;;;10288006;28;20040;-69
2022/07/02 04:44:33;;;;;;;11.10;6.50;;;;;;;;;;10288821;28;20522;-69
2022/07/02 04:49:38;;;;;;;7.05;6.13;;;;;;;;;;10291096;28;20083;-68
2022/07/02 04:54:38;;;;;;;8.95;5.93;;;;;;;;;;10287401;28;20048;-68
2022/07/02 04:59:37;;;;;;;13.93;6.43;;;;;;;;;;10285968;28;20053;-68
2022/07/02 05:04:35;;;;;;;9.88;6.10;;;;;;;;;;10284011;28;20037;-68
2022/07/02 05:09:34;;;;;;;11.10;5.68;;;;;;;;;;10281101;28;20053;-69
2022/07/02 05:14:34;;;;;;;5.97;5.47;;;;;;;;;;10289078;28;20085;-69
2022/07/02 05:19:32;;;;;;;5.95;4.55;;;;;;;;;;10280172;28;20072;-68
2022/07/02 05:24:30;;;;;;;8.88;5.70;;;;;;;;;;10279163;28;20060;-68
2022/07/02 05:29:29;;;;;;;5.35;4.80;;;;;;;;;;10306614;28;20045;-68
2022/07/02 05:34:28;;;;;;;5.88;5.30;;;;;;;;;;10294297;28;20525;-68
2022/07/02 05:39:27;;;;;;;5.55;4.97;;;;;;;;;;10284032;28;20096;-69
2022/07/02 05:44:25;;;;;;;7.93;5.20;;;;;;;;;;10285232;28;20072;-69
2022/07/02 05:49:23;;;;;;;10.15;5.43;;;;;;;;;;10280651;28;20482;-69
2022/07/02 05:54:23;;;;;;;9.70;8.10;;;;;;;;;;10283618;28;20072;-69
2022/07/02 05:59:22;;;;;;;11.95;5.80;;;;;;;;;;10281156;28;20091;-68
2022/07/02 06:04:21;;;;;;;7.00;5.07;;;;;;;;;;10287975;28;20078;-68
2022/07/02 06:09:19;;;;;;;5.40;4.88;;;;;;;;;;10279455;28;20072;-68
2022/07/02 06:14:19;;;;;;;6.82;5.05;;;;;;;;;;10279469;28;20037;-68
2022/07/02 06:19:17;;;;;;;6.47;5.00;;;;;;;;;;10278849;28;20048;-67
2022/07/02 06:24:15;;;;;;;7.57;4.30;;;;;;;;;;10279935;28;20093;-67
2022/07/02 06:29:14;;;;;;;5.65;4.18;;;;;;;;;;10278605;28;20076;-68
2022/07/02 06:34:13;;;;;;;6.10;4.78;;;;;;;;;;10277271;28;20045;-67
2022/07/02 06:39:12;;;;;;;7.55;4.65;;;;;;;;;;10278461;28;20044;-67
2022/07/02 06:44:10;;;;;;;6.82;4.82;;;;;;;;;;10317367;28;20426;-67
2022/07/02 06:49:08;;;;;;;3.63;3.33;;;;;;;;;;10277008;28;20072;-67
2022/07/02 06:54:08;;;;;;;7.50;4.97;;;;;;;;;;10276998;28;20072;-69
2022/07/02 06:59:07;;;;;;;4.95;3.85;;;;;;;;;;10280138;28;20072;-68
2022/07/02 07:04:05;;;;;;;7.70;3.30;;;;;;;;;;10285469;28;20087;-68
2022/07/02 07:09:04;;;;;;;3.55;3.20;;;;;;;;;;10278540;28;20072;-68
2022/07/02 07:14:03;;;;;;;4.78;3.30;;;;;;;;;;10279829;28;20540;-68
2022/07/02 07:19:04;;;;;;;6.10;3.05;;;;;;;;;;10279791;28;20040;-68
2022/07/02 07:24:03;;;;;;;9.18;3.25;;;;;;;;;;10279772;28;20084;-68
2022/07/02 07:29:03;;;;;;;4.82;3.22;;;;;;;;;;10276987;28;20080;-69
2022/07/02 07:34:01;;;;;;;5.65;3.50;;;;;;;;;;10278945;28;20064;-69
2022/07/02 07:39:01;;;;;;;4.03;3.58;;;;;;;;;;10280025;28;20072;-69
2022/07/02 07:44:04;;;;;;;5.05;3.55;;;;;;;;;;10277753;28;20064;-70
2022/07/02 07:49:02;;;;;;;3.95;3.22;;;;;;;;;;10276141;28;20076;-69
2022/07/02 07:54:01;;;;;;;4.22;3.67;;;;;;;;;;10277462;28;20092;-69
2022/07/02 07:58:59;;;;;;;9.57;3.60;;;;;;;;;;10277757;28;20416;-69
2022/07/02 08:03:59;;;;;;;7.47;5.20;;;;;;;;;;10276110;28;20073;-68
2022/07/02 08:08:57;;;;;;;5.88;3.78;;;;;;;;;;10275790;28;20470;-68
2022/07/02 08:13:56;;;;;;;6.25;3.80;;;;;;;;;;10275897;28;20049;-69
2022/07/02 08:18:54;;;;;;;4.38;3.97;;;;;;;;;;10280082;28;20056;-68
2022/07/02 08:23:54;;;;;;;5.05;3.40;;;;;;;;;;10279327;28;20470;-69
2022/07/02 08:28:52;;;;;;;6.03;4.22;;;;;;;;;;10276937;28;20076;-69
2022/07/02 08:33:50;;;;;;;5.47;4.43;;;;;;;;;;10276579;28;20068;-69
2022/07/02 08:38:49;;;;;;;5.30;3.70;;;;;;;;;;10278817;28;20041;-70
2022/07/02 08:43:52;;;;;;;7.68;3.72;;;;;;;;;;10283146;28;20049;-68
2022/07/02 08:48:50;;;;;;;;;;;;;;;;;;10284428;28;20456;-68
2022/07/02 08:53:48;;;;;;;4.30;3.90;;;;;;;;;;10286437;28;19978;-68
2022/07/02 08:58:49;;;;;;;7.20;4.03;;;;;;;;;;10282605;28;20052;-69
2022/07/02 09:03:50;;;;;;;6.22;3.58;;;;;;;;;;10282250;28;20452;-68
2022/07/02 09:08:48;;;;;;;5.32;3.85;;;;;;;;;;10283454;28;20080;-68
2022/07/02 09:13:47;;;;;;;8.95;3.33;;;;;;;;;;10281789;28;20077;-69
2022/07/02 09:18:45;;;;;;;8.43;3.53;;;;;;;;;;10281951;28;20076;-69
2022/07/02 09:23:48;;;;;;;7.63;5.25;;;;;;;;;;10284188;28;20064;-69
2022/07/02 09:28:55;;;;;;;7.90;4.20;;;;;;;;;;10278220;28;20091;-69
2022/07/02 09:33:54;;;;;;;3.70;3.25;;;;;;;;;;10281099;28;20517;-68
2022/07/02 09:38:56;;;;;;;6.70;3.70;;;;;;;;;;10286143;28;20056;-68
2022/07/02 09:43:58;;;;;;;5.03;3.80;;;;;;;;;;10280786;28;20457;-69
2022/07/02 09:49:06;;;;;;;8.77;3.87;;;;;;;;;;10280316;28;20081;-69
2022/07/02 09:54:07;;;;;;;5.30;3.78;;;;;;;;;;10279281;28;20041;-69
2022/07/02 09:59:13;;;;;;;4.07;3.58;;;;;;;;;;10279197;28;20049;-69
2022/07/02 10:04:13;;;;;;;6.10;3.85;;;;;;;;;;10279352;28;20077;-68
2022/07/02 10:09:15;;;;;;;7.82;4.15;;;;;;;;;;10278985;28;20081;-68
2022/07/02 10:14:14;;;;;;;4.90;3.92;;;;;;;;;;10278731;28;20081;-68
2022/07/02 10:19:15;;;;;;;4.78;3.70;;;;;;;;;;10279703;28;20097;-68
2022/07/02 10:24:15;;;;;;;4.15;3.75;;;;;;;;;;10283560;28;20084;-69
2022/07/02 10:29:14;;;;;;;9.70;3.90;;;;;;;;;;10279043;28;20083;-68
2022/07/02 10:34:19;;;;;;;4.50;4.10;;;;;;;;;;10278568;28;20330;-68
2022/07/02 10:39:20;;;;;;;6.53;3.55;;;;;;;;;;10277758;28;20041;-69
2022/07/02 10:44:18;;;;;;;5.57;3.58;;;;;;;;;;10279991;28;20076;-69
2022/07/02 10:49:24;;;;;;;4.93;3.72;;;;;;;;;;10283266;28;20077;-68
2022/07/02 10:54:45;;;;;;;8.93;3.92;;;;;;;;;;10285686;28;20099;-68
2022/07/02 10:59:44;;;;;;;4.38;3.97;;;;;;;;;;10280843;28;20071;-68
2022/07/02 11:04:42;;;;;;;4.78;4.00;;;;;;;;;;10276753;28;20081;-68
2022/07/02 11:09:50;;;;;;;3.78;3.45;;;;;;;;;;10277316;28;20076;-69
2022/07/02 11:14:54;;;;;;;;;;;;;;;;;;10278374;28;20076;-68
2022/07/02 11:20:13;;;;;;;4.40;4.00;;;;;;;;;;10279648;28;20433;-69
2022/07/02 11:25:12;;;;;;;4.20;3.80;;;;;;;;;;10279935;28;20091;-69
2022/07/02 11:30:11;;;;;;;4.60;3.80;;;;;;;;;;10277488;28;20079;-69
2022/07/02 11:35:10;;;;;;;6.18;3.92;;;;;;;;;;10275231;28;20458;-68
2022/07/02 11:40:19;;;;;;;5.88;3.63;;;;;;;;;;10277483;28;20053;-68
2022/07/02 11:45:17;;;;;;;4.30;3.65;;;;;;;;;;10276477;28;20087;-68
2022/07/02 11:50:27;;;;;;;8.70;3.80;;;;;;;;;;10276460;28;20518;-68
2022/07/02 11:55:26;;;;;;;4.38;3.90;;;;;;;;;;10278667;28;20071;-68
2022/07/02 12:00:30;;;;;;;7.70;4.57;;;;;;;;;;10276185;28;20052;-68
2022/07/02 12:05:28;;;;;;;4.57;4.15;;;;;;;;;;10284702;28;20044;-68
2022/07/02 12:10:27;;;;;;;10.07;4.38;;;;;;;;;;10275416;28;20076;-68
2022/07/02 12:15:26;;;;;;;5.57;3.92;;;;;;;;;;10279161;28;20552;-67
2022/07/02 12:20:24;;;;;;;7.60;5.55;;;;;;;;;;10288122;28;20041;-69
2022/07/02 12:25:22;;;;;;;5.57;3.30;;;;;;;;;;10282497;28;20080;-69
2022/07/02 12:30:22;;;;;;;4.57;4.18;;;;;;;;;;10292387;28;20080;-69
2022/07/02 12:35:21;;;;;;;6.38;3.80;;;;;;;;;;10286412;28;20463;-68
2022/07/02 12:40:20;;;;;;;4.38;3.78;;;;;;;;;;10283510;28;20088;-69
2022/07/02 12:45:25;;;;;;;6.93;3.58;;;;;;;;;;10283908;28;20069;-69
2022/07/02 12:50:23;;;;;;;5.22;3.45;;;;;;;;;;10282957;28;20092;-69
2022/07/02 12:55:22;;;;;;;4.05;3.72;;;;;;;;;;10284995;28;20084;-70
2022/07/02 13:00:22;;;;;;;4.45;3.60;;;;;;;;;;10282885;28;20044;-69
2022/07/02 13:05:21;;;;;;;7.13;3.42;;;;;;;;;;10281954;28;20501;-69
2022/07/02 13:10:20;;;;;;;7.93;3.72;;;;;;;;;;10282188;28;20076;-69
2022/07/02 13:15:18;;;;;;;12.43;3.75;;;;;;;;;;10290138;28;20076;-69
2022/07/02 13:20:16;;;;;;;7.28;4.00;;;;;;;;;;10282631;28;20076;-69
2022/07/02 13:25:16;;;;;;;6.05;4.88;;;;;;;;;;10279511;28;20475;-69
2022/07/02 13:30:16;;;;;;;8.07;5.07;;;;;;;;;;10285743;28;20076;-69
2022/07/02 13:35:15;;;;;;;4.28;3.88;;;;;;;;;;10281023;28;20493;-69
2022/07/02 13:40:14;;;;;;;5.03;4.18;;;;;;;;;;10280523;28;20083;-70
2022/07/02 13:45:14;;;;;;;8.63;5.60;;;;;;;;;;10280532;28;20037;-68
2022/07/02 13:50:13;;;;;;;5.55;4.63;;;;;;;;;;10280759;28;20466;-68
2022/07/02 13:55:12;;;;;;;7.25;4.55;;;;;;;;;;10280758;28;20077;-68
2022/07/02 14:00:11;;;;;;;4.90;4.30;;;;;;;;;;10283328;28;20057;-69
2022/07/02 14:05:11;;;;;;;11.88;4.32;;;;;;;;;;10286758;28;20080;-69
2022/07/02 14:10:09;;;;;;;10.38;4.55;;;;;;;;;;10286540;28;20084;-69
2022/07/02 14:15:08;;;;;;;5.50;4.05;;;;;;;;;;10279964;28;20061;-69
2022/07/02 14:20:07;;;;;;;5.72;3.95;;;;;;;;;;10278140;28;20072;-69
2022/07/02 14:25:26;;;;;;;6.32;5.18;;;;;;;;;;10280061;28;20061;-69
2022/07/02 14:30:25;;;;;;;6.80;4.10;;;;;;;;;;10279446;28;20525;-69
2022/07/02 14:35:23;;;;;;;6.97;4.15;;;;;;;;;;10281383;28;20091;-68
2022/07/02 14:40:21;;;;;;;5.20;3.85;;;;;;;;;;10278888;28;20075;-69
2022/07/02 14:45:21;;;;;;;6.82;3.83;;;;;;;;;;10281464;28;20068;-68
2022/07/02 14:50:19;;;;;;;7.93;5.38;;;;;;;;;;10279047;28;20077;-69
2022/07/02 14:55:18;;;;;;;9.10;4.97;;;;;;;;;;10278454;28;20505;-69
2022/07/02 15:00:16;;;;;;;5.07;4.60;;;;;;;;;;10275390;28;20049;-69
2022/07/02 15:05:16;;;;;;;4.60;4.07;;;;;;;;;;10276717;28;20037;-69
2022/07/02 15:10:14;;;;;;;4.43;4.03;;;;;;;;;;10277837;28;20103;-69
2022/07/02 15:20:32;;;;;;;5.75;3.88;;;;;;;;;;10301761;28;20044;-69
2022/07/02 15:25:32;;;;;;;5.63;4.20;;;;;;;;;;10280654;28;20081;-69
2022/07/02 15:30:31;;;;;;;8.95;4.43;;;;;;;;;;10276843;28;20085;-69
2022/07/02 15:35:32;;;;;;;4.53;3.95;;;;;;;;;;10279953;28;20040;-69
2022/07/02 15:40:30;;;;;;;4.07;3.67;;;;;;;;;;10283319;28;20073;-69
2022/07/02 15:45:29;;;;;;;6.47;4.22;;;;;;;;;;10277194;28;20510;-69
2022/07/02 15:50:29;;;;;;;5.57;5.05;;;;;;;;;;10278297;28;20077;-69
2022/07/02 15:55:30;;;;;;;5.35;4.35;;;;;;;;;;10275822;28;20087;-69
2022/07/02 16:00:31;;;;;;;7.85;3.90;;;;;;;;;;10275363;28;20079;-69
2022/07/02 16:05:31;;;;;;;9.82;4.40;;;;;;;;;;10275705;28;20049;-68
2022/07/02 16:10:31;;;;;;;5.88;4.75;;;;;;;;;;10275441;28;20538;-69
2022/07/02 16:15:29;;;;;;;7.70;3.90;;;;;;;;;;10275253;28;20041;-69
2022/07/02 16:20:28;;;;;;;6.85;4.10;;;;;;;;;;10275745;28;20044;-69
2022/07/02 16:25:26;;;;;;;5.43;3.40;;;;;;;;;;10276122;28;20084;-69
2022/07/02 16:30:26;;;;;;;6.22;3.90;;;;;;;;;;10283709;28;20069;-70
2022/07/02 16:35:26;;;;;;;5.25;3.80;;;;;;;;;;10275881;28;20045;-69
2022/07/02 16:40:25;;;;;;;8.65;6.22;;;;;;;;;;10275327;28;20052;-70
2022/07/02 16:45:25;;;;;;;8.23;4.60;;;;;;;;;;10306802;28;20048;-69
2022/07/02 16:50:27;;;;;;;6.68;4.05;;;;;;;;;;10281557;28;20072;-65
2022/07/02 16:55:25;;;;;;;5.10;4.45;;;;;;;;;;10277794;28;20111;-64
2022/07/02 17:00:24;;;;;;;9.70;4.78;;;;;;;;;;10280227;28;20084;-64
2022/07/02 17:05:23;;;;;;;10.07;4.07;;;;;;;;;;10282703;28;20071;-65
2022/07/02 17:15:41;;;;;;;11.40;5.03;;;;;;;;;;10253285;28;20084;-65
2022/07/02 17:20:39;;;;;;;8.65;6.00;;;;;;;;;;10282010;28;20045;-64
2022/07/02 17:25:41;;;;;;;6.93;5.25;;;;;;;;;;10281103;28;20060;-65
2022/07/02 17:30:41;;;;;;;6.10;4.65;;;;;;;;;;10280425;28;20077;-65
2022/07/02 17:35:39;;;;;;;10.05;4.85;;;;;;;;;;10280296;28;20052;-65
2022/07/02 17:40:38;;;;;;;8.57;5.28;;;;;;;;;;10285902;28;20097;-65
2022/07/02 17:45:37;;;;;;;5.50;4.65;;;;;;;;;;10283534;28;20076;-65
2022/07/02 17:50:35;;;;;;;4.80;4.40;;;;;;;;;;10281002;28;20104;-65
2022/07/02 17:55:35;;;;;;;5.53;4.85;;;;;;;;;;10279811;28;20068;-64
2022/07/02 18:00:33;;;;;;;5.75;5.07;;;;;;;;;;10279943;28;20041;-65
2022/07/02 18:05:33;;;;;;;8.85;4.60;;;;;;;;;;10280294;28;20076;-64
2022/07/02 18:10:31;;;;;;;5.35;4.03;;;;;;;;;;10279059;28;20486;-65
2022/07/02 18:15:30;;;;;;;5.38;3.95;;;;;;;;;;10279117;28;20234;-65
2022/07/02 18:20:28;;;;;;;5.32;4.82;;;;;;;;;;10300074;28;20080;-64
2022/07/02 18:25:28;;;;;;;8.05;4.85;;;;;;;;;;10283820;28;20096;-65
2022/07/02 18:30:27;;;;;;;8.73;4.40;;;;;;;;;;10285303;28;20084;-65
2022/07/02 18:35:31;;;;;;;5.30;4.45;;;;;;;;;;10282434;28;20080;-66
2022/07/02 18:40:31;;;;;;;7.90;4.97;;;;;;;;;;10277257;28;20049;-65
2022/07/02 18:45:29;;;;;;;7.88;4.97;;;;;;;;;;10282785;28;20072;-65
2022/07/02 18:50:28;;;;;;;5.70;3.95;;;;;;;;;;10277264;28;20083;-63
2022/07/02 18:55:26;;;;;;;5.07;4.07;;;;;;;;;;10280640;28;20076;-64
2022/07/02 19:00:27;;;;;;;4.78;4.30;;;;;;;;;;10280918;28;20044;-65
2022/07/02 19:05:25;;;;;;;5.72;4.10;;;;;;;;;;10281001;28;20077;-65
2022/07/02 19:10:26;;;;;;;4.85;4.07;;;;;;;;;;10276853;28;20080;-65
2022/07/02 19:15:27;;;;;;;6.63;4.43;;;;;;;;;;10275091;28;20410;-65
2022/07/02 19:20:25;;;;;;;5.10;4.38;;;;;;;;;;10276414;28;20084;-64
2022/07/02 19:25:23;;;;;;;6.03;4.03;;;;;;;;;;10277081;28;20084;-65
2022/07/02 19:30:31;;;;;;;7.68;4.25;;;;;;;;;;10274025;28;20072;-64
2022/07/02 19:35:32;;;;;;;8.80;4.32;;;;;;;;;;10275084;28;20041;-65
2022/07/02 19:40:30;;;;;;;5.13;3.92;;;;;;;;;;10275772;28;20045;-65
2022/07/02 19:45:30;;;;;;;4.57;3.58;;;;;;;;;;10276512;28;20502;-65
2022/07/02 19:50:29;;;;;;;6.63;4.47;;;;;;;;;;10276708;28;20072;-65
2022/07/02 19:55:29;;;;;;;7.55;4.70;;;;;;;;;;10276915;28;20076;-65
2022/07/02 20:00:31;;;;;;;4.93;4.43;;;;;;;;;;10275788;28;20409;-64
2022/07/02 20:05:31;;;;;;;7.60;4.70;;;;;;;;;;10275494;28;20421;-64
2022/07/02 20:10:31;;;;;;;9.10;4.68;;;;;;;;;;10276286;28;20455;-64
2022/07/02 20:15:29;;;;;;;10.20;4.85;;;;;;;;;;10300719;28;20044;-63
2022/07/02 20:20:27;;;;;;;5.93;4.43;;;;;;;;;;10278656;28;20083;-64
2022/07/02 20:25:26;;;;;;;5.60;4.55;;;;;;;;;;10276835;28;20091;-65
2022/07/02 20:30:26;;;;;;;5.53;4.47;;;;;;;;;;10278891;28;20516;-66
2022/07/02 20:35:24;;;;;;;6.32;4.10;;;;;;;;;;10281809;28;20040;-65
2022/07/02 20:40:23;;;;;;;6.85;4.50;;;;;;;;;;10284356;28;20091;-65
2022/07/02 20:45:21;;;;;;;5.60;3.78;;;;;;;;;;10286579;28;20064;-65
2022/07/02 20:50:21;;;;;;;5.25;4.55;;;;;;;;;;10283924;28;20081;-65
2022/07/02 20:55:19;;;;;;;5.25;4.18;;;;;;;;;;10286144;28;20482;-64
2022/07/02 21:00:18;;;;;;;5.75;3.95;;;;;;;;;;10285809;28;20073;-65
2022/07/02 21:05:17;;;;;;;5.90;3.92;;;;;;;;;;10282058;28;20049;-64
2022/07/02 21:10:16;;;;;;;5.32;4.32;;;;;;;;;;10282378;28;20473;-65
2022/07/02 21:15:15;;;;;;;5.22;3.90;;;;;;;;;;10285605;28;20497;-64
2022/07/02 21:20:13;;;;;;;4.65;4.15;;;;;;;;;;10282256;28;20053;-64
2022/07/02 21:25:12;;;;;;;7.35;3.90;;;;;;;;;;10284542;28;20072;-65
2022/07/02 21:30:12;;;;;;;4.72;3.58;;;;;;;;;;10282242;28;20053;-64
2022/07/02 21:35:10;;;;;;;5.75;3.65;;;;;;;;;;10281430;28;20079;-64
2022/07/02 21:40:09;;;;;;;4.65;3.65;;;;;;;;;;10283402;28;20076;-64
2022/07/02 21:45:15;;;;;;;3.80;3.47;;;;;;;;;;10280752;28;20493;-64
2022/07/02 21:50:13;;;;;;;5.70;3.25;;;;;;;;;;10289737;28;20049;-64
2022/07/02 21:55:12;;;;;;;4.18;3.63;;;;;;;;;;10279635;28;20099;-64
2022/07/02 22:00:11;;;;;;;9.63;3.42;;;;;;;;;;10279699;28;20045;-64
2022/07/02 22:05:11;;;;;;;4.03;3.70;;;;;;;;;;10287270;28;20076;-64
2022/07/02 22:10:09;;;;;;;4.10;3.70;;;;;;;;;;10280609;28;20467;-64
2022/07/02 22:15:08;;;;;;;7.95;4.03;;;;;;;;;;10280397;28;20083;-63
2022/07/02 22:20:51;;;;;;;5.63;3.92;;;;;;;;;;10282802;28;20506;-64
2022/07/02 22:25:28;;;;;;;5.68;3.70;;;;;;;;;;10279691;28;20091;-64
2022/07/02 22:30:26;;;;;;;4.13;3.20;;;;;;;;;;10280448;28;20068;-64
2022/07/02 22:35:24;;;;;;;5.07;3.67;;;;;;;;;;10278170;28;20597;-64
2022/07/02 22:40:23;;;;;;;4.25;3.72;;;;;;;;;;10278290;28;20057;-64
2022/07/02 22:45:23;;;;;;;4.35;3.55;;;;;;;;;;10277509;28;20060;-64
2022/07/02 22:50:22;;;;;;;4.50;3.75;;;;;;;;;;10277273;28;20246;-65
2022/07/02 22:55:20;;;;;;;5.50;3.42;;;;;;;;;;10277419;28;20373;-65
2022/07/02 23:00:19;;;;;;;10.65;4.10;;;;;;;;;;10276091;28;20044;-64
2022/07/02 23:05:19;;;;;;;4.70;3.35;;;;;;;;;;10274900;28;20313;-65
2022/07/02 23:10:18;;;;;;;5.13;3.55;;;;;;;;;;10279628;28;20111;-64
2022/07/02 23:15:19;;;;;;;4.25;3.92;;;;;;;;;;10276573;28;20076;-65
2022/07/02 23:20:18;;;;;;;7.03;3.95;;;;;;;;;;10276409;28;20065;-64
2022/07/02 23:25:17;;;;;;;8.05;3.88;;;;;;;;;;10276423;28;20091;-65
2022/07/02 23:30:15;;;;;;;4.22;3.47;;;;;;;;;;10277143;28;20088;-65
2022/07/02 23:35:13;;;;;;;4.53;3.55;;;;;;;;;;10279761;28;20494;-64
2022/07/02 23:40:14;;;;;;;5.03;4.07;;;;;;;;;;10279553;28;20414;-65
2022/07/02 23:45:12;;;;;;;10.75;3.92;;;;;;;;;;10276884;28;20509;-65
2022/07/02 23:50:11;;;;;;;5.65;3.85;;;;;;;;;;10279796;28;20081;-64
2022/07/02 23:55:09;;;;;;;4.57;4.18;;;;;;;;;;10276417;28;20080;-63
